createdAt,value
2023-05-05T00:00:55.090Z,96141.66
2023-05-05T00:01:56.619Z,96143.97
2023-05-05T00:02:58.605Z,96146.97
2023-05-05T00:04:00.333Z,96144.47
2023-05-05T00:05:02.045Z,96143.84
2023-05-05T00:06:04.308Z,96140.72
2023-05-05T00:07:05.826Z,96145.06
2023-05-05T00:08:07.901Z,96140.69
2023-05-05T00:09:09.405Z,96144.22
2023-05-05T00:10:10.870Z,96145.25
2023-05-05T00:11:14.483Z,96138.63
2023-05-05T00:12:16.088Z,96137.19
2023-05-05T00:13:18.503Z,96139.88
2023-05-05T00:14:20.049Z,96139.44
2023-05-05T00:15:21.498Z,96134.28
2023-05-05T00:16:23.347Z,96135.53
2023-05-05T00:17:24.989Z,96141.13
2023-05-05T00:18:26.695Z,96137.00
2023-05-05T00:19:28.187Z,96140.94
2023-05-05T00:20:29.629Z,96140.13
2023-05-05T00:21:31.149Z,96137.88
2023-05-05T00:22:32.589Z,96140.78
2023-05-05T00:23:34.164Z,96138.09
2023-05-05T00:24:35.923Z,96141.16
2023-05-05T00:25:37.592Z,96135.41
2023-05-05T00:26:39.073Z,96136.22
2023-05-05T00:27:41.016Z,96133.31
2023-05-05T00:28:42.855Z,96140.13
2023-05-05T00:29:44.884Z,96139.50
2023-05-05T00:30:46.576Z,96145.09
2023-05-05T00:31:51.722Z,96143.66
2023-05-05T00:32:55.027Z,96144.94
2023-05-05T00:33:56.690Z,96141.19
2023-05-05T00:34:58.319Z,96145.53
2023-05-05T00:35:59.945Z,96143.88
2023-05-05T00:37:01.621Z,96142.44
2023-05-05T00:38:04.974Z,96146.56
2023-05-05T00:39:06.455Z,96142.03
2023-05-05T00:40:09.251Z,96144.69
2023-05-05T00:41:11.063Z,96141.78
2023-05-05T00:42:12.578Z,96143.22
2023-05-05T00:43:14.083Z,96143.00
2023-05-05T00:44:15.780Z,96142.97
2023-05-05T00:45:18.793Z,96142.75
2023-05-05T00:46:27.469Z,96147.84
2023-05-05T00:47:29.265Z,96138.66
2023-05-05T00:48:31.658Z,96136.78
2023-05-05T00:49:34.736Z,96138.81
2023-05-05T00:50:37.298Z,96142.06
2023-05-05T00:51:38.837Z,96136.91
2023-05-05T00:52:40.598Z,96133.31
2023-05-05T00:53:44.920Z,96137.94
2023-05-05T00:54:47.325Z,96133.63
2023-05-05T00:55:49.608Z,96137.06
2023-05-05T00:56:51.475Z,96136.31
2023-05-05T00:57:53.361Z,96136.91
2023-05-05T00:58:55.212Z,96137.13
2023-05-05T00:59:58.749Z,96134.03
2023-05-05T01:01:00.651Z,96137.97
2023-05-05T01:02:02.332Z,96139.31
2023-05-05T01:03:05.288Z,96135.19
2023-05-05T01:04:07.244Z,96136.22
2023-05-05T01:05:10.128Z,96133.75
2023-05-05T01:06:15.228Z,96137.47
2023-05-05T01:07:34.068Z,96142.25
2023-05-05T01:08:50.518Z,96135.94
2023-05-05T01:10:18.103Z,96135.53
2023-05-05T01:11:32.653Z,96135.56
2023-05-05T01:12:46.419Z,96140.34
2023-05-05T01:14:10.227Z,96139.50
2023-05-05T01:15:31.749Z,96135.22
2023-05-05T01:16:34.828Z,96134.81
2023-05-05T01:17:50.629Z,96132.78
2023-05-05T01:19:20.125Z,96132.16
2023-05-05T01:20:31.592Z,96136.31
2023-05-05T01:21:40.423Z,96128.28
2023-05-05T01:22:53.365Z,96135.28
2023-05-05T01:24:48.641Z,96140.41
2023-05-05T01:26:05.464Z,96128.44
2023-05-05T01:27:31.779Z,96130.50
2023-05-05T01:29:02.931Z,96134.31
2023-05-05T01:30:39.239Z,96126.63
2023-05-05T01:31:53.916Z,96130.91
2023-05-05T01:33:00.936Z,96130.25
2023-05-05T01:34:08.139Z,96131.94
2023-05-05T01:35:13.809Z,96127.78
2023-05-05T01:36:26.351Z,96130.25
2023-05-05T01:37:45.456Z,96123.69
2023-05-05T01:38:47.884Z,96125.16
2023-05-05T01:39:55.567Z,96136.13
2023-05-05T01:41:18.204Z,96132.25
2023-05-05T01:42:21.160Z,96124.03
2023-05-05T01:43:23.304Z,96128.84
2023-05-05T01:44:25.457Z,96128.88
2023-05-05T01:45:32.244Z,96128.91
2023-05-05T01:46:36.148Z,96124.00
2023-05-05T01:47:40.257Z,96128.16
2023-05-05T01:48:44.224Z,96124.28
2023-05-05T01:49:47.723Z,96125.59
2023-05-05T01:50:50.317Z,96126.03
2023-05-05T01:51:52.420Z,96125.84
2023-05-05T01:52:55.365Z,96127.09
2023-05-05T01:53:59.764Z,96128.59
2023-05-05T01:55:02.966Z,96128.38
2023-05-05T01:56:05.631Z,96128.38
2023-05-05T01:57:08.572Z,96135.19
2023-05-05T01:58:12.053Z,96136.41
2023-05-05T01:59:13.744Z,96134.75
2023-05-05T02:00:17.986Z,96128.38
2023-05-05T02:01:24.159Z,96142.59
2023-05-05T02:02:28.233Z,96140.94
2023-05-05T02:03:31.479Z,96146.50
2023-05-05T02:04:34.927Z,96146.13
2023-05-05T02:05:39.682Z,96140.31
2023-05-05T02:06:43.842Z,96146.47
2023-05-05T02:07:50.036Z,96152.06
2023-05-05T02:08:53.199Z,96154.13
2023-05-05T02:09:56.398Z,96152.66
2023-05-05T02:10:58.717Z,96152.88
2023-05-05T02:12:02.110Z,96157.59
2023-05-05T02:13:04.817Z,96156.38
2023-05-05T02:14:09.146Z,96155.75
2023-05-05T02:15:11.443Z,96159.66
2023-05-05T02:16:14.101Z,96152.06
2023-05-05T02:17:16.317Z,96152.06
2023-05-05T02:18:19.178Z,96154.94
2023-05-05T02:19:27.316Z,96156.16
2023-05-05T02:20:31.581Z,96154.72
2023-05-05T02:21:34.216Z,96155.28
2023-05-05T02:22:35.755Z,96154.69
2023-05-05T02:23:39.043Z,96155.72
2023-05-05T02:24:40.655Z,96151.78
2023-05-05T02:25:45.587Z,96157.13
2023-05-05T02:26:50.440Z,96154.88
2023-05-05T02:27:56.610Z,96151.59
2023-05-05T02:29:07.840Z,96158.97
2023-05-05T02:30:11.481Z,96159.19
2023-05-05T02:31:14.883Z,96162.88
2023-05-05T02:32:24.043Z,96155.06
2023-05-05T02:33:27.910Z,96159.78
2023-05-05T02:34:36.508Z,96155.47
2023-05-05T02:35:41.227Z,96160.19
2023-05-05T02:36:51.319Z,96162.91
2023-05-05T02:38:01.887Z,96163.53
2023-05-05T02:39:14.589Z,96163.97
2023-05-05T02:40:24.313Z,96157.19
2023-05-05T02:41:28.987Z,96159.06
2023-05-05T02:42:37.953Z,96166.94
2023-05-05T02:43:43.348Z,96157.63
2023-05-05T02:44:47.203Z,96156.13
2023-05-05T02:45:49.510Z,96163.34
2023-05-05T02:46:54.258Z,96160.16
2023-05-05T02:47:56.225Z,96157.41
2023-05-05T02:48:59.704Z,96165.59
2023-05-05T02:50:01.519Z,96159.13
2023-05-05T02:51:03.659Z,96156.25
2023-05-05T02:52:09.239Z,96165.47
2023-05-05T02:53:12.773Z,96155.91
2023-05-05T02:54:14.823Z,96155.66
2023-05-05T02:55:16.762Z,96159.16
2023-05-05T02:56:41.169Z,96157.63
2023-05-05T02:58:29.043Z,96155.13
2023-05-05T02:59:58.156Z,96151.38
2023-05-05T03:01:29.738Z,96156.16
2023-05-05T03:02:45.456Z,96152.88
2023-05-05T03:03:56.345Z,96160.59
2023-05-05T03:05:09.037Z,96163.78
2023-05-05T03:06:21.112Z,96164.53
2023-05-05T03:07:33.939Z,96158.66
2023-05-05T03:08:53.743Z,96163.97
2023-05-05T03:10:08.731Z,96160.78
2023-05-05T03:11:32.042Z,96162.44
2023-05-05T03:12:48.338Z,96161.69
2023-05-05T03:14:07.053Z,96161.00
2023-05-05T03:15:10.470Z,96167.06
2023-05-05T03:16:14.095Z,96163.16
2023-05-05T03:17:18.578Z,96169.53
2023-05-05T03:18:22.550Z,96170.16
2023-05-05T03:19:32.117Z,96172.47
2023-05-05T03:20:35.870Z,96165.50
2023-05-05T03:21:42.002Z,96165.53
2023-05-05T03:22:43.733Z,96169.75
2023-05-05T03:23:48.300Z,96162.56
2023-05-05T03:24:54.545Z,96167.16
2023-05-05T03:25:58.948Z,96166.75
2023-05-05T03:27:14.003Z,96165.28
2023-05-05T03:28:16.252Z,96165.94
2023-05-05T03:29:17.825Z,96164.28
2023-05-05T03:30:20.160Z,96167.19
2023-05-05T03:31:25.215Z,96161.03
2023-05-05T03:32:31.308Z,96159.59
2023-05-05T03:33:32.900Z,96162.28
2023-05-05T03:34:37.350Z,96163.09
2023-05-05T03:35:39.918Z,96164.56
2023-05-05T03:36:43.902Z,96162.09
2023-05-05T03:37:47.903Z,96167.47
2023-05-05T03:38:51.406Z,96161.66
2023-05-05T03:39:54.548Z,96162.31
2023-05-05T03:40:57.197Z,96162.13
2023-05-05T03:42:01.042Z,96160.91
2023-05-05T03:43:06.264Z,96167.13
2023-05-05T03:44:07.933Z,96166.72
2023-05-05T03:45:10.714Z,96165.91
2023-05-05T03:46:14.016Z,96158.88
2023-05-05T03:47:16.804Z,96170.00
2023-05-05T03:48:19.679Z,96172.69
2023-05-05T03:49:21.605Z,96176.22
2023-05-05T03:50:25.959Z,96165.69
2023-05-05T03:51:28.055Z,96168.38
2023-05-05T03:52:29.783Z,96174.53
2023-05-05T03:53:31.287Z,96165.59
2023-05-05T03:54:34.888Z,96168.19
2023-05-05T03:55:37.122Z,96167.97
2023-05-05T03:56:38.629Z,96167.97
2023-05-05T03:57:40.193Z,96174.38
2023-05-05T03:58:42.031Z,96170.06
2023-05-05T03:59:43.556Z,96176.25
2023-05-05T04:00:45.272Z,96165.94
2023-05-05T04:01:48.881Z,96166.97
2023-05-05T04:02:51.151Z,96164.28
2023-05-05T04:03:54.469Z,96168.84
2023-05-05T04:04:56.033Z,96174.38
2023-05-05T04:05:57.544Z,96165.69
2023-05-05T04:06:59.595Z,96173.84
2023-05-05T04:08:01.313Z,96169.75
2023-05-05T04:09:03.322Z,96168.44
2023-05-05T04:10:05.662Z,96172.16
2023-05-05T04:11:07.923Z,96165.09
2023-05-05T04:12:13.649Z,96173.75
2023-05-05T04:13:15.623Z,96170.03
2023-05-05T04:14:17.162Z,96169.56
2023-05-05T04:15:19.111Z,96174.28
2023-05-05T04:16:21.035Z,96171.31
2023-05-05T04:17:22.669Z,96169.78
2023-05-05T04:18:24.303Z,96170.56
2023-05-05T04:19:26.037Z,96168.78
2023-05-05T04:20:27.526Z,96174.66
2023-05-05T04:21:31.529Z,96172.66
2023-05-05T04:22:33.311Z,96181.03
2023-05-05T04:23:34.962Z,96172.38
2023-05-05T04:24:37.231Z,96172.94
2023-05-05T04:25:39.307Z,96182.69
2023-05-05T04:26:41.464Z,96177.81
2023-05-05T04:27:43.026Z,96179.22
2023-05-05T04:28:47.317Z,96179.53
2023-05-05T04:29:50.206Z,96174.66
2023-05-05T04:30:52.397Z,96179.72
2023-05-05T04:31:54.310Z,96178.19
2023-05-05T04:32:55.852Z,96183.34
2023-05-05T04:33:57.453Z,96184.56
2023-05-05T04:34:58.944Z,96183.88
2023-05-05T04:36:00.850Z,96188.13
2023-05-05T04:37:03.666Z,96188.47
2023-05-05T04:38:05.634Z,96193.03
2023-05-05T04:39:08.616Z,96189.88
2023-05-05T04:40:10.670Z,96191.53
2023-05-05T04:41:13.492Z,96193.38
2023-05-05T04:42:17.248Z,96193.41
2023-05-05T04:43:18.749Z,96194.19
2023-05-05T04:44:20.974Z,96191.25
2023-05-05T04:45:22.686Z,96194.88
2023-05-05T04:46:24.985Z,96196.25
2023-05-05T04:47:26.554Z,96193.06
2023-05-05T04:48:28.250Z,96196.31
2023-05-05T04:49:30.351Z,96193.16
2023-05-05T04:50:32.624Z,96199.16
2023-05-05T04:51:34.113Z,96197.44
2023-05-05T04:52:35.782Z,96189.94
2023-05-05T04:53:37.337Z,96190.16
2023-05-05T04:54:39.223Z,96194.28
2023-05-05T04:55:40.785Z,96194.13
2023-05-05T04:56:42.310Z,96198.75
2023-05-05T04:57:44.445Z,96197.84
2023-05-05T04:58:46.133Z,96200.03
2023-05-05T04:59:47.742Z,96196.97
2023-05-05T05:00:49.245Z,96198.38
2023-05-05T05:01:50.735Z,96203.09
2023-05-05T05:02:53.100Z,96204.72
2023-05-05T05:03:54.800Z,96203.50
2023-05-05T05:04:56.352Z,96200.66
2023-05-05T05:05:57.928Z,96203.91
2023-05-05T05:06:59.487Z,96201.00
2023-05-05T05:08:02.097Z,96206.72
2023-05-05T05:09:03.781Z,96208.53
2023-05-05T05:10:06.137Z,96201.72
2023-05-05T05:11:08.883Z,96208.06
2023-05-05T05:12:10.529Z,96210.03
2023-05-05T05:13:12.858Z,96216.88
2023-05-05T05:14:14.602Z,96209.47
2023-05-05T05:15:16.195Z,96205.75
2023-05-05T05:16:17.787Z,96208.47
2023-05-05T05:17:20.500Z,96207.47
2023-05-05T05:18:22.010Z,96210.19
2023-05-05T05:19:24.670Z,96215.69
2023-05-05T05:20:26.292Z,96212.72
2023-05-05T05:21:27.845Z,96220.56
2023-05-05T05:22:30.602Z,96221.25
2023-05-05T05:23:33.024Z,96221.03
2023-05-05T05:24:35.180Z,96222.38
2023-05-05T05:25:36.707Z,96220.66
2023-05-05T05:26:38.934Z,96221.50
2023-05-05T05:27:41.731Z,96221.53
2023-05-05T05:28:44.153Z,96219.34
2023-05-05T05:29:45.724Z,96215.03
2023-05-05T05:30:47.303Z,96212.81
2023-05-05T05:31:50.188Z,96216.22
2023-05-05T05:32:52.139Z,96217.00
2023-05-05T05:33:53.778Z,96216.78
2023-05-05T05:34:55.366Z,96220.94
2023-05-05T05:35:56.931Z,96219.88
2023-05-05T05:36:58.695Z,96221.63
2023-05-05T05:38:00.630Z,96214.03
2023-05-05T05:39:02.113Z,96219.09
2023-05-05T05:40:05.313Z,96218.31
2023-05-05T05:41:08.408Z,96217.63
2023-05-05T05:42:11.627Z,96223.81
2023-05-05T05:43:13.095Z,96225.31
2023-05-05T05:44:14.635Z,96221.75
2023-05-05T05:45:16.779Z,96218.19
2023-05-05T05:46:19.399Z,96219.50
2023-05-05T05:47:21.580Z,96218.94
2023-05-05T05:48:28.358Z,96220.66
2023-05-05T05:49:30.514Z,96214.06
2023-05-05T05:50:32.029Z,96221.44
2023-05-05T05:51:34.181Z,96220.28
2023-05-05T05:52:36.491Z,96228.78
2023-05-05T05:53:40.045Z,96226.06
2023-05-05T05:54:42.973Z,96232.19
2023-05-05T05:55:48.725Z,96227.13
2023-05-05T05:56:50.685Z,96228.31
2023-05-05T05:57:52.475Z,96231.59
2023-05-05T05:58:54.817Z,96228.16
2023-05-05T05:59:59.213Z,96226.25
2023-05-05T06:01:02.212Z,96235.38
2023-05-05T06:02:04.772Z,96234.59
2023-05-05T06:03:07.431Z,96234.00
2023-05-05T06:04:11.823Z,96227.56
2023-05-05T06:05:13.876Z,96236.72
2023-05-05T06:06:17.213Z,96243.00
2023-05-05T06:07:19.428Z,96243.16
2023-05-05T06:08:23.049Z,96239.53
2023-05-05T06:09:27.737Z,96243.09
2023-05-05T06:10:30.376Z,96245.03
2023-05-05T06:11:37.040Z,96240.00
2023-05-05T06:12:38.798Z,96253.03
2023-05-05T06:13:40.363Z,96242.69
2023-05-05T06:14:41.924Z,96249.25
2023-05-05T06:15:43.499Z,96244.16
2023-05-05T06:16:47.171Z,96247.41
2023-05-05T06:17:54.014Z,96247.88
2023-05-05T06:18:57.593Z,96251.72
2023-05-05T06:19:59.453Z,96254.06
2023-05-05T06:21:02.023Z,96244.84
2023-05-05T06:22:04.671Z,96249.25
2023-05-05T06:23:06.672Z,96242.13
2023-05-05T06:24:11.947Z,96237.88
2023-05-05T06:25:13.512Z,96239.44
2023-05-05T06:26:14.978Z,96240.84
2023-05-05T06:27:16.867Z,96239.28
2023-05-05T06:28:18.675Z,96241.97
2023-05-05T06:29:20.521Z,96240.75
2023-05-05T06:30:22.037Z,96236.47
2023-05-05T06:31:23.837Z,96240.59
2023-05-05T06:32:25.510Z,96237.16
2023-05-05T06:33:26.998Z,96233.22
2023-05-05T06:34:28.560Z,96238.53
2023-05-05T06:35:30.349Z,96237.16
2023-05-05T06:36:32.353Z,96234.19
2023-05-05T06:37:34.034Z,96231.16
2023-05-05T06:38:36.397Z,96237.38
2023-05-05T06:39:37.909Z,96236.78
2023-05-05T06:40:39.692Z,96244.94
2023-05-05T06:41:41.688Z,96241.38
2023-05-05T06:42:43.473Z,96237.06
2023-05-05T06:43:50.957Z,96243.53
2023-05-05T06:44:52.598Z,96232.81
2023-05-05T06:45:54.127Z,96238.53
2023-05-05T06:46:55.719Z,96242.00
2023-05-05T06:47:57.405Z,96241.91
2023-05-05T06:48:58.937Z,96241.44
2023-05-05T06:50:00.384Z,96243.69
2023-05-05T06:51:04.539Z,96245.66
2023-05-05T06:52:08.349Z,96251.41
2023-05-05T06:53:09.824Z,96246.97
2023-05-05T06:54:11.297Z,96247.88
2023-05-05T06:55:12.781Z,96254.91
2023-05-05T06:56:14.376Z,96251.97
2023-05-05T06:57:15.946Z,96252.72
2023-05-05T06:58:17.391Z,96250.75
2023-05-05T06:59:18.906Z,96251.56
2023-05-05T07:00:22.054Z,96253.38
2023-05-05T07:01:23.634Z,96255.31
2023-05-05T07:02:26.798Z,96251.81
2023-05-05T07:03:28.506Z,96254.84
2023-05-05T07:04:30.105Z,96249.09
2023-05-05T07:05:31.797Z,96254.44
2023-05-05T07:06:33.661Z,96255.91
2023-05-05T07:07:35.983Z,96253.81
2023-05-05T07:08:37.450Z,96250.34
2023-05-05T07:09:39.256Z,96245.84
2023-05-05T07:10:40.962Z,96250.81
2023-05-05T07:11:42.448Z,96249.94
2023-05-05T07:12:44.114Z,96251.44
2023-05-05T07:13:45.594Z,96256.22
2023-05-05T07:14:47.596Z,96257.06
2023-05-05T07:15:49.616Z,96251.47
2023-05-05T07:16:51.509Z,96253.22
2023-05-05T07:17:53.279Z,96251.78
2023-05-05T07:18:54.792Z,96258.47
2023-05-05T07:19:56.407Z,96257.22
2023-05-05T07:20:57.886Z,96260.78
2023-05-05T07:21:59.378Z,96264.22
2023-05-05T07:23:00.826Z,96260.38
2023-05-05T07:24:05.911Z,96263.47
2023-05-05T07:25:08.075Z,96268.69
2023-05-05T07:26:09.706Z,96268.00
2023-05-05T07:27:11.514Z,96266.25
2023-05-05T07:28:13.213Z,96271.78
2023-05-05T07:29:14.752Z,96273.47
2023-05-05T07:30:18.484Z,96273.72
2023-05-05T07:31:21.977Z,96269.69
2023-05-05T07:32:23.852Z,96277.34
2023-05-05T07:33:25.426Z,96276.56
2023-05-05T07:34:27.561Z,96279.47
2023-05-05T07:35:30.083Z,96279.50
2023-05-05T07:36:32.164Z,96280.34
2023-05-05T07:37:33.703Z,96279.03
2023-05-05T07:38:35.209Z,96277.19
2023-05-05T07:39:36.732Z,96278.88
2023-05-05T07:40:38.205Z,96272.66
2023-05-05T07:41:39.736Z,96278.41
2023-05-05T07:42:41.607Z,96287.56
2023-05-05T07:43:44.637Z,96290.50
2023-05-05T07:44:46.316Z,96285.00
2023-05-05T07:45:47.872Z,96300.53
2023-05-05T07:46:49.720Z,96291.66
2023-05-05T07:47:51.569Z,96294.94
2023-05-05T07:48:53.073Z,96292.44
2023-05-05T07:49:54.553Z,96298.19
2023-05-05T07:50:56.115Z,96298.59
2023-05-05T07:51:57.669Z,96296.34
2023-05-05T07:53:10.572Z,96296.38
2023-05-05T07:54:17.513Z,96291.72
2023-05-05T07:55:19.255Z,96292.75
2023-05-05T07:56:21.778Z,96283.41
2023-05-05T07:57:23.459Z,96294.22
2023-05-05T07:58:25.008Z,96288.41
2023-05-05T07:59:26.630Z,96287.38
2023-05-05T08:00:28.130Z,96286.09
2023-05-05T08:01:29.822Z,96283.41
2023-05-05T08:02:31.378Z,96285.94
2023-05-05T08:03:33.153Z,96283.06
2023-05-05T08:04:35.023Z,96292.78
2023-05-05T08:05:37.699Z,96290.72
2023-05-05T08:06:39.387Z,96286.38
2023-05-05T08:07:41.539Z,96288.63
2023-05-05T08:08:43.565Z,96299.72
2023-05-05T08:09:45.299Z,96293.72
2023-05-05T08:10:46.732Z,96292.03
2023-05-05T08:11:48.416Z,96294.13
2023-05-05T08:12:50.071Z,96298.84
2023-05-05T08:13:52.070Z,96302.97
2023-05-05T08:14:53.882Z,96307.69
2023-05-05T08:15:56.089Z,96303.09
2023-05-05T08:16:57.560Z,96298.81
2023-05-05T08:17:59.341Z,96305.16
2023-05-05T08:19:00.894Z,96298.13
2023-05-05T08:20:02.417Z,96302.66
2023-05-05T08:21:05.367Z,96302.44
2023-05-05T08:22:06.871Z,96293.88
2023-05-05T08:23:08.415Z,96293.47
2023-05-05T08:24:09.938Z,96300.06
2023-05-05T08:25:12.955Z,96295.78
2023-05-05T08:26:14.594Z,96299.06
2023-05-05T08:27:16.176Z,96303.94
2023-05-05T08:28:17.736Z,96301.44
2023-05-05T08:29:19.281Z,96299.94
2023-05-05T08:30:21.401Z,96291.56
2023-05-05T08:31:22.974Z,96299.72
2023-05-05T08:32:24.505Z,96295.59
2023-05-05T08:33:26.053Z,96292.03
2023-05-05T08:34:27.506Z,96293.25
2023-05-05T08:35:28.985Z,96288.91
2023-05-05T08:36:30.980Z,96290.56
2023-05-05T08:37:32.473Z,96293.47
2023-05-05T08:38:33.980Z,96294.63
2023-05-05T08:39:35.597Z,96294.09
2023-05-05T08:40:39.207Z,96290.59
2023-05-05T08:41:40.827Z,96291.13
2023-05-05T08:42:42.919Z,96290.38
2023-05-05T08:43:46.747Z,96299.94
2023-05-05T08:44:48.307Z,96296.09
2023-05-05T08:45:53.568Z,96296.50
2023-05-05T08:46:55.689Z,96292.81
2023-05-05T08:47:58.336Z,96288.00
2023-05-05T08:49:01.531Z,96291.56
2023-05-05T08:50:05.673Z,96292.44
2023-05-05T08:51:09.507Z,96297.38
2023-05-05T08:52:21.652Z,96291.41
2023-05-05T08:53:35.958Z,96293.31
2023-05-05T08:54:40.495Z,96300.00
2023-05-05T08:55:50.451Z,96296.13
2023-05-05T08:56:52.640Z,96296.47
2023-05-05T08:57:57.235Z,96301.88
2023-05-05T08:59:01.056Z,96295.97
2023-05-05T09:00:04.144Z,96296.56
2023-05-05T09:01:06.260Z,96292.94
2023-05-05T09:02:09.671Z,96297.63
2023-05-05T09:03:12.159Z,96294.47
2023-05-05T09:04:14.050Z,96288.34
2023-05-05T09:05:16.251Z,96290.00
2023-05-05T09:06:20.868Z,96288.47
2023-05-05T09:07:22.560Z,96279.66
2023-05-05T09:08:24.656Z,96284.81
2023-05-05T09:09:27.307Z,96279.50
2023-05-05T09:10:29.336Z,96281.22
2023-05-05T09:11:33.933Z,96286.50
2023-05-05T09:12:36.095Z,96282.41
2023-05-05T09:13:37.613Z,96283.31
2023-05-05T09:14:39.132Z,96276.72
2023-05-05T09:15:42.112Z,96277.13
2023-05-05T09:16:44.220Z,96279.03
2023-05-05T09:17:46.800Z,96269.94
2023-05-05T09:18:48.436Z,96273.59
2023-05-05T09:20:10.477Z,96272.81
2023-05-05T09:21:25.954Z,96276.09
2023-05-05T09:22:41.132Z,96273.47
2023-05-05T09:24:09.424Z,96276.41
2023-05-05T09:25:13.020Z,96266.94
2023-05-05T09:26:14.769Z,96279.03
2023-05-05T09:27:23.378Z,96267.63
2023-05-05T09:28:24.847Z,96276.13
2023-05-05T09:29:26.395Z,96275.34
2023-05-05T09:30:27.988Z,96269.34
2023-05-05T09:31:33.831Z,96268.16
2023-05-05T09:32:52.313Z,96272.16
2023-05-05T09:33:53.901Z,96279.03
2023-05-05T09:35:00.464Z,96271.44
2023-05-05T09:36:01.913Z,96278.72
2023-05-05T09:37:03.754Z,96271.09
2023-05-05T09:38:12.202Z,96272.38
2023-05-05T09:39:16.363Z,96270.97
2023-05-05T09:40:19.402Z,96274.97
2023-05-05T09:41:37.527Z,96270.88
2023-05-05T09:42:40.448Z,96269.84
2023-05-05T09:43:52.383Z,96271.66
2023-05-05T09:44:56.051Z,96266.94
2023-05-05T09:46:08.250Z,96272.03
2023-05-05T09:47:21.961Z,96267.69
2023-05-05T09:48:30.589Z,96263.34
2023-05-05T09:49:32.166Z,96263.31
2023-05-05T09:50:44.117Z,96269.59
2023-05-05T09:51:46.557Z,96265.66
2023-05-05T09:52:59.087Z,96269.91
2023-05-05T09:54:00.594Z,96264.38
2023-05-05T09:55:02.206Z,96257.19
2023-05-05T09:56:03.855Z,96255.31
2023-05-05T09:57:05.329Z,96254.38
2023-05-05T09:58:29.327Z,96255.50
2023-05-05T09:59:30.934Z,96261.53
2023-05-05T10:00:39.558Z,96257.66
2023-05-05T10:01:43.360Z,96256.88
2023-05-05T10:02:45.518Z,96251.16
2023-05-05T10:03:53.690Z,96249.50
2023-05-05T10:05:12.902Z,96247.88
2023-05-05T10:06:14.561Z,96239.81
2023-05-05T10:07:24.210Z,96245.53
2023-05-05T10:08:34.198Z,96249.91
2023-05-05T10:09:35.748Z,96248.53
2023-05-05T10:10:39.927Z,96248.25
2023-05-05T10:11:42.295Z,96246.91
2023-05-05T10:12:46.576Z,96248.78
2023-05-05T10:13:48.483Z,96256.34
2023-05-05T10:14:52.579Z,96251.16
2023-05-05T10:15:56.219Z,96250.16
2023-05-05T10:17:00.869Z,96249.06
2023-05-05T10:18:07.424Z,96247.72
2023-05-05T10:19:14.214Z,96243.84
2023-05-05T10:20:16.262Z,96247.91
2023-05-05T10:21:21.388Z,96245.44
2023-05-05T10:22:24.090Z,96247.34
2023-05-05T10:23:35.248Z,96241.53
2023-05-05T10:24:47.897Z,96236.59
2023-05-05T10:26:12.503Z,96232.81
2023-05-05T10:27:23.090Z,96241.94
2023-05-05T10:28:56.127Z,96236.31
2023-05-05T10:30:06.331Z,96243.09
2023-05-05T10:31:24.252Z,96240.84
2023-05-05T10:33:47.623Z,96240.34
2023-05-05T10:34:53.269Z,96241.38
2023-05-05T10:35:59.621Z,96241.34
2023-05-05T10:37:01.410Z,96246.69
2023-05-05T10:38:03.698Z,96243.63
2023-05-05T10:39:10.658Z,96241.38
2023-05-05T10:40:13.868Z,96240.41
2023-05-05T10:41:16.020Z,96232.53
2023-05-05T10:42:21.037Z,96227.41
2023-05-05T10:43:24.412Z,96227.16
2023-05-05T10:44:27.737Z,96233.34
2023-05-05T10:45:29.731Z,96220.91
2023-05-05T10:46:34.103Z,96224.06
2023-05-05T10:47:37.254Z,96218.00
2023-05-05T10:48:59.688Z,96219.44
2023-05-05T10:50:11.455Z,96210.06
2023-05-05T10:51:39.384Z,96211.09
2023-05-05T10:53:19.032Z,96213.63
2023-05-05T10:54:32.701Z,96208.66
2023-05-05T10:55:40.877Z,96214.91
2023-05-05T10:56:43.394Z,96210.25
2023-05-05T10:57:46.152Z,96200.72
2023-05-05T10:58:59.081Z,96204.13
2023-05-05T11:00:01.869Z,96202.34
2023-05-05T11:01:05.089Z,96196.53
2023-05-05T11:02:26.728Z,96192.13
2023-05-05T11:03:29.002Z,96189.25
2023-05-05T11:04:30.841Z,96192.78
2023-05-05T11:05:32.455Z,96195.13
2023-05-05T11:06:33.934Z,96197.19
2023-05-05T11:07:36.839Z,96187.88
2023-05-05T11:08:48.158Z,96188.78
2023-05-05T11:09:58.331Z,96184.72
2023-05-05T11:11:00.915Z,96182.84
2023-05-05T11:12:04.675Z,96188.03
2023-05-05T11:13:09.136Z,96186.66
2023-05-05T11:14:24.444Z,96187.53
2023-05-05T11:15:33.476Z,96181.00
2023-05-05T11:16:50.491Z,96178.50
2023-05-05T11:17:57.028Z,96179.59
2023-05-05T11:18:58.547Z,96174.44
2023-05-05T11:20:00.030Z,96174.41
2023-05-05T11:21:01.460Z,96178.44
2023-05-05T11:22:03.047Z,96170.75
2023-05-05T11:23:04.978Z,96174.31
2023-05-05T11:24:30.089Z,96164.81
2023-05-05T11:25:38.078Z,96163.47
2023-05-05T11:26:58.014Z,96169.41
2023-05-05T11:28:16.877Z,96174.38
2023-05-05T11:29:18.426Z,96167.19
2023-05-05T11:30:20.182Z,96171.06
2023-05-05T11:31:22.117Z,96168.06
2023-05-05T11:32:24.943Z,96164.50
2023-05-05T11:33:34.979Z,96171.78
2023-05-05T11:34:48.228Z,96178.03
2023-05-05T11:36:09.400Z,96172.56
2023-05-05T11:37:11.409Z,96176.22
2023-05-05T11:38:15.453Z,96177.50
2023-05-05T11:39:26.698Z,96172.31
2023-05-05T11:40:33.355Z,96179.69
2023-05-05T11:42:12.709Z,96181.28
2023-05-05T11:43:18.955Z,96177.03
2023-05-05T11:44:32.656Z,96177.19
2023-05-05T11:45:34.567Z,96170.28
2023-05-05T11:46:36.156Z,96170.72
2023-05-05T11:47:38.162Z,96164.31
2023-05-05T11:48:49.992Z,96168.25
2023-05-05T11:49:51.513Z,96167.38
2023-05-05T11:50:53.860Z,96166.66
2023-05-05T11:52:06.003Z,96163.25
2023-05-05T11:53:07.787Z,96165.59
2023-05-05T11:54:09.290Z,96166.28
2023-05-05T11:55:10.832Z,96165.59
2023-05-05T11:56:18.740Z,96163.97
2023-05-05T11:57:27.868Z,96158.84
2023-05-05T11:58:29.399Z,96161.25
2023-05-05T11:59:54.973Z,96157.56
2023-05-05T12:00:56.547Z,96159.41
2023-05-05T12:01:58.773Z,96151.22
2023-05-05T12:03:00.474Z,96159.25
2023-05-05T12:04:02.263Z,96153.13
2023-05-05T12:05:04.462Z,96150.84
2023-05-05T12:06:07.539Z,96153.88
2023-05-05T12:07:15.419Z,96158.56
2023-05-05T12:08:16.904Z,96155.69
2023-05-05T12:09:20.243Z,96152.28
2023-05-05T12:10:25.124Z,96157.19
2023-05-05T12:11:26.731Z,96152.38
2023-05-05T12:12:40.144Z,96150.44
2023-05-05T12:13:41.905Z,96149.88
2023-05-05T12:14:47.067Z,96153.94
2023-05-05T12:15:48.536Z,96144.44
2023-05-05T12:17:08.613Z,96142.50
2023-05-05T12:18:19.806Z,96140.28
2023-05-05T12:19:21.821Z,96145.22
2023-05-05T12:20:32.230Z,96134.88
2023-05-05T12:21:35.172Z,96133.56
2023-05-05T12:22:36.840Z,96137.13
2023-05-05T12:23:39.134Z,96134.38
2023-05-05T12:24:40.664Z,96134.13
2023-05-05T12:25:42.189Z,96131.66
2023-05-05T12:26:44.001Z,96132.19
2023-05-05T12:27:52.801Z,96137.75
2023-05-05T12:28:55.534Z,96134.75
2023-05-05T12:30:10.187Z,96135.81
2023-05-05T12:31:11.895Z,96127.16
2023-05-05T12:32:21.429Z,96136.34
2023-05-05T12:33:23.219Z,96128.00
2023-05-05T12:34:24.816Z,96124.81
2023-05-05T12:35:27.032Z,96118.59
2023-05-05T12:36:30.615Z,96124.88
2023-05-05T12:37:32.504Z,96121.59
2023-05-05T12:38:34.905Z,96120.25
2023-05-05T12:39:36.602Z,96117.75
2023-05-05T12:40:53.727Z,96119.28
2023-05-05T12:42:03.116Z,96122.94
2023-05-05T12:43:04.656Z,96119.47